createdAt,value
2023-02-07T03:43:39.081Z,0.90
2023-02-07T03:46:41.870Z,2.55
2023-02-07T03:49:44.211Z,0.30
2023-02-07T03:52:46.973Z,0.28
2023-02-07T03:55:49.169Z,1.12
2023-02-07T03:58:51.628Z,1.23
2023-02-07T04:01:53.831Z,0.47
2023-02-07T04:04:56.278Z,2.25
2023-02-07T04:07:58.433Z,2.80
2023-02-07T04:11:03.370Z,3.00
2023-02-07T04:14:05.537Z,2.97
2023-02-07T04:17:07.981Z,4.47
2023-02-07T04:20:10.741Z,2.00
2023-02-07T04:23:13.788Z,2.70
2023-02-07T04:26:15.957Z,3.28
2023-02-07T04:29:18.381Z,0.55
2023-02-07T04:32:20.569Z,1.05
2023-02-07T04:35:23.042Z,2.05
2023-02-07T04:38:25.794Z,1.35
2023-02-07T04:41:28.355Z,1.42
2023-02-07T04:44:31.077Z,2.30
2023-02-07T04:47:33.502Z,0.62
2023-02-07T04:50:35.676Z,1.40
2023-02-07T04:53:38.075Z,2.20
2023-02-07T04:56:40.205Z,1.48
2023-02-07T04:59:42.703Z,1.58
2023-02-07T05:02:44.930Z,2.10
2023-02-07T05:05:47.430Z,0.50
2023-02-07T05:08:49.529Z,0.32
2023-02-07T05:11:51.953Z,3.87
2023-02-07T05:14:54.079Z,0.85
2023-02-07T05:17:57.108Z,1.25
2023-02-07T05:20:59.504Z,1.75
2023-02-07T05:24:01.986Z,1.10
2023-02-07T05:27:04.509Z,0.90
2023-02-07T05:30:07.681Z,0.60
2023-02-07T05:33:11.013Z,1.55
2023-02-07T05:36:13.409Z,0.30
2023-02-07T05:39:15.841Z,2.20
2023-02-07T05:42:18.380Z,1.67
2023-02-07T05:45:21.512Z,0.98
2023-02-07T05:48:23.882Z,0.50
2023-02-07T05:51:26.099Z,0.80
2023-02-07T05:54:29.903Z,1.77
2023-02-07T05:57:32.311Z,0.77
2023-02-07T06:00:34.774Z,1.40
2023-02-07T06:03:37.260Z,1.37
2023-02-07T06:06:39.484Z,1.48
2023-02-07T06:09:41.945Z,3.78
2023-02-07T06:12:44.261Z,1.20
2023-02-07T06:15:47.868Z,1.00
2023-02-07T06:18:50.955Z,1.50
2023-02-07T06:21:53.444Z,1.75
2023-02-07T06:24:55.563Z,1.40
2023-02-07T06:27:58.035Z,1.30
2023-02-07T06:31:00.342Z,1.40
2023-02-07T06:34:02.889Z,1.02
2023-02-07T06:37:05.286Z,0.30
2023-02-07T06:40:08.304Z,0.57
2023-02-07T06:43:11.646Z,2.35
2023-02-07T06:46:14.665Z,1.20
2023-02-07T06:49:16.861Z,1.67
2023-02-07T06:52:19.741Z,1.90
2023-02-07T06:55:21.935Z,2.55
2023-02-07T06:58:24.557Z,1.33
2023-02-07T07:01:26.738Z,2.00
2023-02-07T07:04:29.715Z,2.58
2023-02-07T07:07:31.883Z,1.52
2023-02-07T07:10:34.867Z,0.60
2023-02-07T07:13:37.335Z,0.75
2023-02-07T07:16:43.169Z,1.05
2023-02-07T07:19:45.279Z,1.60
2023-02-07T07:22:48.520Z,2.55
2023-02-07T07:25:50.820Z,1.35
2023-02-07T07:28:58.131Z,3.15
2023-02-07T07:32:00.599Z,1.80
2023-02-07T07:35:05.051Z,2.55
2023-02-07T07:38:07.230Z,0.85
2023-02-07T07:41:09.715Z,1.67
2023-02-07T07:44:11.913Z,1.75
2023-02-07T07:47:14.584Z,2.35
2023-02-07T07:50:17.065Z,2.35
2023-02-07T07:53:20.220Z,2.72
2023-02-07T07:56:22.412Z,2.65
2023-02-07T07:59:25.226Z,4.18
2023-02-07T08:02:28.109Z,1.77
2023-02-07T08:05:30.562Z,3.30
2023-02-07T08:08:33.472Z,1.77
2023-02-07T08:11:36.000Z,4.93
2023-02-07T08:14:38.700Z,2.05
2023-02-07T08:17:41.227Z,3.97
2023-02-07T08:20:43.495Z,1.58
2023-02-07T08:23:45.934Z,4.47
2023-02-07T08:26:48.119Z,3.85
2023-02-07T08:29:54.415Z,3.17
2023-02-07T08:32:56.625Z,2.08
2023-02-07T08:36:00.641Z,3.67
2023-02-07T08:39:05.190Z,3.90
2023-02-07T08:42:09.524Z,3.30
2023-02-07T08:45:14.166Z,4.68
2023-02-07T08:48:16.867Z,3.85
2023-02-07T08:51:19.335Z,2.05
2023-02-07T08:54:22.185Z,3.33
2023-02-07T08:57:25.780Z,2.35
2023-02-07T09:00:28.513Z,2.08
2023-02-07T09:03:30.707Z,3.85
2023-02-07T09:06:33.265Z,3.00
2023-02-07T09:09:35.728Z,5.50
2023-02-07T09:12:38.288Z,4.07
2023-02-07T09:15:40.448Z,3.97
2023-02-07T09:18:42.973Z,4.37
2023-02-07T09:21:45.245Z,3.97
2023-02-07T09:24:47.751Z,3.83
2023-02-07T09:27:50.596Z,4.37
2023-02-07T09:30:53.582Z,4.03
2023-02-07T09:33:56.184Z,2.87
2023-02-07T09:36:59.007Z,3.22
2023-02-07T09:40:01.261Z,3.90
2023-02-07T09:43:09.019Z,2.42
2023-02-07T09:46:22.697Z,3.83
2023-02-07T09:49:38.528Z,4.18
2023-02-07T09:52:47.444Z,4.82
2023-02-07T09:55:57.840Z,4.28
2023-02-07T09:59:18.555Z,4.12
2023-02-07T10:02:26.259Z,4.87
2023-02-07T10:05:53.845Z,4.87
2023-02-07T10:09:00.093Z,3.78
2023-02-07T10:12:34.628Z,5.43
2023-02-07T10:15:50.403Z,4.80
2023-02-07T10:19:01.111Z,4.05
2023-02-07T10:22:15.838Z,5.37
2023-02-07T10:25:36.512Z,4.87
2023-02-07T10:28:59.441Z,3.78
2023-02-07T10:32:12.587Z,5.50
2023-02-07T10:35:19.696Z,4.70
2023-02-07T10:38:38.205Z,3.20
2023-02-07T10:41:45.049Z,4.70
2023-02-07T10:44:48.037Z,5.00
2023-02-07T10:47:50.214Z,4.80
2023-02-07T10:50:52.718Z,3.58
2023-02-07T10:54:07.740Z,4.45
2023-02-07T10:57:18.062Z,4.05
2023-02-07T11:00:28.792Z,4.75
2023-02-07T11:03:31.449Z,3.40
2023-02-07T11:06:34.471Z,3.00
2023-02-07T11:09:39.529Z,4.18
2023-02-07T11:12:58.965Z,4.03
2023-02-07T11:16:10.606Z,3.22
2023-02-07T11:19:22.838Z,3.60
2023-02-07T11:22:28.538Z,6.35
2023-02-07T11:25:35.841Z,6.05
2023-02-07T11:28:38.478Z,5.37
2023-02-07T11:31:42.750Z,3.65
2023-02-07T11:34:51.397Z,4.43
2023-02-07T11:38:22.927Z,4.68
2023-02-07T11:41:27.547Z,5.97
2023-02-07T11:44:30.997Z,4.85
2023-02-07T11:47:35.420Z,5.22
2023-02-07T11:50:40.988Z,5.22
2023-02-07T11:53:47.206Z,4.93
2023-02-07T11:56:53.636Z,5.05
2023-02-07T12:00:06.893Z,5.75
2023-02-07T12:03:27.569Z,6.22
2023-02-07T12:06:42.201Z,6.10
2023-02-07T12:09:59.314Z,4.95
2023-02-07T12:13:15.253Z,5.65
2023-02-07T12:16:26.457Z,5.70
2023-02-07T12:19:33.760Z,6.30
2023-02-07T12:22:59.284Z,5.60
2023-02-07T12:26:13.094Z,6.55
2023-02-07T12:29:37.349Z,4.12
2023-02-07T12:33:03.812Z,5.40
2023-02-07T12:36:20.348Z,2.50
2023-02-07T12:39:42.125Z,5.25
2023-02-07T12:42:57.358Z,6.53
2023-02-07T12:46:02.516Z,3.28
2023-02-07T12:49:33.715Z,4.07
2023-02-07T12:52:57.285Z,3.35
2023-02-07T12:56:23.355Z,2.30
2023-02-07T12:59:55.116Z,2.83
2023-02-07T13:03:34.442Z,2.92
2023-02-07T13:07:14.271Z,2.92
2023-02-07T13:10:52.003Z,3.30
2023-02-07T13:14:35.947Z,2.62
2023-02-07T13:17:40.924Z,1.35
2023-02-07T13:21:11.488Z,2.22
2023-02-07T13:24:17.079Z,2.20
2023-02-07T13:27:22.425Z,2.27
2023-02-07T13:30:28.026Z,2.72
2023-02-07T13:33:42.014Z,2.03
2023-02-07T13:36:49.219Z,1.70
2023-02-07T13:40:16.476Z,3.15
2023-02-07T13:43:25.228Z,3.83
2023-02-07T13:46:58.297Z,3.37
2023-02-07T13:50:21.699Z,3.10
2023-02-07T13:53:36.122Z,2.10
2023-02-07T13:56:57.340Z,2.83
2023-02-07T14:00:07.325Z,3.58
2023-02-07T14:03:35.313Z,4.70
2023-02-07T14:06:40.399Z,4.87
2023-02-07T14:09:48.897Z,3.75
2023-02-07T14:12:53.755Z,2.17
2023-02-07T14:16:09.972Z,2.62
2023-02-07T14:19:13.620Z,1.83
2023-02-07T14:22:15.860Z,3.95
2023-02-07T14:25:18.325Z,3.42
2023-02-07T14:28:31.753Z,2.12
2023-02-07T14:31:34.200Z,3.83
2023-02-07T14:35:25.671Z,1.85
2023-02-07T14:38:42.304Z,1.42
2023-02-07T14:41:46.505Z,5.22
2023-02-07T14:44:50.957Z,2.95
2023-02-07T14:47:53.340Z,1.65
2023-02-07T14:50:55.948Z,3.28
2023-02-07T14:54:06.415Z,1.90
2023-02-07T14:57:36.694Z,3.22
2023-02-07T15:00:50.218Z,1.70
2023-02-07T15:04:07.186Z,2.35
2023-02-07T15:07:17.002Z,1.90
2023-02-07T15:10:24.243Z,1.17
2023-02-07T15:13:43.336Z,1.85
2023-02-07T15:16:45.902Z,2.95
2023-02-07T15:19:48.296Z,2.17
2023-02-07T15:22:54.353Z,1.50
2023-02-07T15:25:58.246Z,2.65
2023-02-07T15:29:05.362Z,2.08
2023-02-07T15:35:39.397Z,1.75
2023-02-07T15:38:41.827Z,4.20
2023-02-07T15:41:46.181Z,2.67
2023-02-07T15:44:54.086Z,2.15
2023-02-07T15:47:58.804Z,1.15
2023-02-07T15:51:04.529Z,3.12
2023-02-07T15:54:07.494Z,3.13
2023-02-07T15:57:22.108Z,3.12
2023-02-07T16:00:29.156Z,1.60
2023-02-07T16:03:36.578Z,2.00
2023-02-07T16:06:54.982Z,2.62
2023-02-07T16:10:15.545Z,2.75
2023-02-07T16:13:22.919Z,0.88
2023-02-07T16:16:28.489Z,2.50
2023-02-07T16:19:32.899Z,1.50
2023-02-07T16:22:36.256Z,2.30
2023-02-07T16:25:38.520Z,4.75
2023-02-07T16:28:41.004Z,3.42
2023-02-07T16:31:44.177Z,1.30
2023-02-07T16:34:58.970Z,2.92
2023-02-07T16:38:02.433Z,5.47
2023-02-07T16:41:04.995Z,2.25
2023-02-07T16:44:12.424Z,3.62
